sensor_id;sensor_type;location;lat;lon;timestamp;P1;durP1;ratioP1;P2;durP2;ratioP2
4460;SDS011;2243;48.812;9.232;2023-02-28T00:00:49;3.50;;;2.80;;
4460;SDS011;2243;48.812;9.232;2023-02-28T00:03:20;3.50;;;3.13;;
4460;SDS011;2243;48.812;9.232;2023-02-28T00:05:51;2.67;;;2.43;;
4460;SDS011;2243;48.812;9.232;2023-02-28T00:08:22;3.17;;;2.97;;
4460;SDS011;2243;48.812;9.232;2023-02-28T00:10:53;4.50;;;3.67;;
4460;SDS011;2243;48.812;9.232;2023-02-28T00:13:24;2.87;;;2.60;;
4460;SDS011;2243;48.812;9.232;2023-02-28T00:15:59;2.60;;;2.40;;
4460;SDS011;2243;48.812;9.232;2023-02-28T00:18:35;2.90;;;2.70;;
4460;SDS011;2243;48.812;9.232;2023-02-28T00:21:06;3.00;;;2.80;;
4460;SDS011;2243;48.812;9.232;2023-02-28T00:23:38;2.70;;;2.50;;
4460;SDS011;2243;48.812;9.232;2023-02-28T00:26:09;5.57;;;2.63;;
4460;SDS011;2243;48.812;9.232;2023-02-28T00:28:41;2.80;;;2.60;;
4460;SDS011;2243;48.812;9.232;2023-02-28T00:31:12;2.77;;;2.60;;
4460;SDS011;2243;48.812;9.232;2023-02-28T00:33:43;2.53;;;2.43;;
4460;SDS011;2243;48.812;9.232;2023-02-28T00:36:13;2.77;;;2.67;;
4460;SDS011;2243;48.812;9.232;2023-02-28T00:38:44;3.23;;;3.03;;
4460;SDS011;2243;48.812;9.232;2023-02-28T00:41:15;2.83;;;2.37;;
4460;SDS011;2243;48.812;9.232;2023-02-28T00:43:46;2.23;;;2.03;;
4460;SDS011;2243;48.812;9.232;2023-02-28T00:46:17;3.13;;;2.93;;
4460;SDS011;2243;48.812;9.232;2023-02-28T00:48:48;2.60;;;2.40;;
4460;SDS011;2243;48.812;9.232;2023-02-28T00:51:19;3.90;;;2.80;;
4460;SDS011;2243;48.812;9.232;2023-02-28T00:53:50;3.17;;;2.63;;
4460;SDS011;2243;48.812;9.232;2023-02-28T00:56:21;3.10;;;2.90;;
4460;SDS011;2243;48.812;9.232;2023-02-28T00:58:52;3.23;;;3.03;;
4460;SDS011;2243;48.812;9.232;2023-02-28T01:01:23;3.27;;;2.97;;
4460;SDS011;2243;48.812;9.232;2023-02-28T01:03:54;2.90;;;2.80;;
4460;SDS011;2243;48.812;9.232;2023-02-28T01:06:25;3.13;;;3.03;;
4460;SDS011;2243;48.812;9.232;2023-02-28T01:08:56;2.77;;;2.57;;
4460;SDS011;2243;48.812;9.232;2023-02-28T01:11:28;3.00;;;2.80;;
4460;SDS011;2243;48.812;9.232;2023-02-28T01:14:00;2.83;;;2.73;;
4460;SDS011;2243;48.812;9.232;2023-02-28T01:16:32;3.40;;;3.10;;
4460;SDS011;2243;48.812;9.232;2023-02-28T01:19:03;3.63;;;2.97;;
4460;SDS011;2243;48.812;9.232;2023-02-28T01:21:34;3.13;;;2.93;;
4460;SDS011;2243;48.812;9.232;2023-02-28T01:24:05;4.03;;;3.73;;
4460;SDS011;2243;48.812;9.232;2023-02-28T01:26:37;2.83;;;2.70;;
4460;SDS011;2243;48.812;9.232;2023-02-28T01:29:08;3.33;;;3.13;;
4460;SDS011;2243;48.812;9.232;2023-02-28T01:31:39;2.97;;;2.77;;
4460;SDS011;2243;48.812;9.232;2023-02-28T01:34:10;3.40;;;3.10;;
4460;SDS011;2243;48.812;9.232;2023-02-28T01:36:41;2.90;;;2.70;;
4460;SDS011;2243;48.812;9.232;2023-02-28T01:39:12;3.40;;;3.10;;
4460;SDS011;2243;48.812;9.232;2023-02-28T01:41:43;3.53;;;3.23;;
4460;SDS011;2243;48.812;9.232;2023-02-28T01:47:33;3.83;;;3.53;;
4460;SDS011;2243;48.812;9.232;2023-02-28T01:50:13;3.40;;;3.13;;
4460;SDS011;2243;48.812;9.232;2023-02-28T01:52:49;3.10;;;2.90;;
4460;SDS011;2243;48.812;9.232;2023-02-28T01:55:22;4.67;;;3.43;;
4460;SDS011;2243;48.812;9.232;2023-02-28T01:57:55;3.90;;;3.50;;
4460;SDS011;2243;48.812;9.232;2023-02-28T02:00:29;4.57;;;4.17;;
4460;SDS011;2243;48.812;9.232;2023-02-28T02:03:04;3.63;;;3.13;;
4460;SDS011;2243;48.812;9.232;2023-02-28T02:05:47;4.00;;;3.70;;
4460;SDS011;2243;48.812;9.232;2023-02-28T02:08:19;4.57;;;4.20;;
4460;SDS011;2243;48.812;9.232;2023-02-28T02:10:57;3.63;;;3.43;;
4460;SDS011;2243;48.812;9.232;2023-02-28T02:37:36;4.03;;;3.67;;
4460;SDS011;2243;48.812;9.232;2023-02-28T02:40:19;6.10;;;3.70;;
4460;SDS011;2243;48.812;9.232;2023-02-28T02:43:16;4.17;;;3.80;;
4460;SDS011;2243;48.812;9.232;2023-02-28T02:46:10;3.83;;;3.53;;
4460;SDS011;2243;48.812;9.232;2023-02-28T02:48:59;3.77;;;3.47;;
4460;SDS011;2243;48.812;9.232;2023-02-28T02:51:34;4.40;;;4.10;;
4460;SDS011;2243;48.812;9.232;2023-02-28T02:56:48;4.00;;;3.70;;
4460;SDS011;2243;48.812;9.232;2023-02-28T02:59:21;6.57;;;4.50;;
4460;SDS011;2243;48.812;9.232;2023-02-28T03:01:55;4.90;;;4.17;;
4460;SDS011;2243;48.812;9.232;2023-02-28T03:04:31;3.60;;;3.40;;
4460;SDS011;2243;48.812;9.232;2023-02-28T03:07:13;3.77;;;3.57;;
4460;SDS011;2243;48.812;9.232;2023-02-28T03:09:53;4.20;;;3.90;;
4460;SDS011;2243;48.812;9.232;2023-02-28T03:12:49;3.93;;;3.73;;
4460;SDS011;2243;48.812;9.232;2023-02-28T03:15:24;4.17;;;3.87;;
4460;SDS011;2243;48.812;9.232;2023-02-28T03:18:10;7.10;;;3.20;;
4460;SDS011;2243;48.812;9.232;2023-02-28T03:24:03;4.50;;;4.20;;
4460;SDS011;2243;48.812;9.232;2023-02-28T03:26:54;4.37;;;3.90;;
4460;SDS011;2243;48.812;9.232;2023-02-28T03:29:35;4.00;;;3.80;;
4460;SDS011;2243;48.812;9.232;2023-02-28T03:32:18;3.90;;;3.70;;
4460;SDS011;2243;48.812;9.232;2023-02-28T03:34:59;3.80;;;3.50;;
4460;SDS011;2243;48.812;9.232;2023-02-28T03:37:40;3.73;;;3.50;;
4460;SDS011;2243;48.812;9.232;2023-02-28T03:40:15;4.50;;;4.10;;
4460;SDS011;2243;48.812;9.232;2023-02-28T03:42:53;3.77;;;3.57;;
4460;SDS011;2243;48.812;9.232;2023-02-28T03:45:32;6.50;;;4.90;;
4460;SDS011;2243;48.812;9.232;2023-02-28T03:48:15;4.90;;;4.50;;
4460;SDS011;2243;48.812;9.232;2023-02-28T03:50:59;4.90;;;4.57;;
4460;SDS011;2243;48.812;9.232;2023-02-28T03:53:33;4.60;;;4.27;;
4460;SDS011;2243;48.812;9.232;2023-02-28T03:56:17;4.77;;;4.30;;
4460;SDS011;2243;48.812;9.232;2023-02-28T04:01:50;4.57;;;4.20;;
4460;SDS011;2243;48.812;9.232;2023-02-28T04:04:22;7.73;;;5.00;;
4460;SDS011;2243;48.812;9.232;2023-02-28T04:06:53;4.47;;;4.07;;
4460;SDS011;2243;48.812;9.232;2023-02-28T04:09:33;4.03;;;3.73;;
4460;SDS011;2243;48.812;9.232;2023-02-28T04:12:05;4.73;;;4.47;;
4460;SDS011;2243;48.812;9.232;2023-02-28T04:14:36;5.90;;;3.97;;
4460;SDS011;2243;48.812;9.232;2023-02-28T04:17:07;4.70;;;3.90;;
4460;SDS011;2243;48.812;9.232;2023-02-28T04:19:38;4.83;;;4.03;;
4460;SDS011;2243;48.812;9.232;2023-02-28T04:22:09;4.70;;;4.30;;
4460;SDS011;2243;48.812;9.232;2023-02-28T04:24:40;5.20;;;4.70;;
4460;SDS011;2243;48.812;9.232;2023-02-28T04:27:11;5.13;;;4.50;;
4460;SDS011;2243;48.812;9.232;2023-02-28T04:29:42;5.93;;;4.90;;
4460;SDS011;2243;48.812;9.232;2023-02-28T04:32:14;4.50;;;3.80;;
4460;SDS011;2243;48.812;9.232;2023-02-28T04:34:45;5.20;;;4.80;;
4460;SDS011;2243;48.812;9.232;2023-02-28T04:37:16;5.50;;;5.00;;
4460;SDS011;2243;48.812;9.232;2023-02-28T04:39:47;5.13;;;4.63;;
4460;SDS011;2243;48.812;9.232;2023-02-28T04:42:18;4.77;;;4.37;;
4460;SDS011;2243;48.812;9.232;2023-02-28T04:44:49;4.93;;;4.53;;
4460;SDS011;2243;48.812;9.232;2023-02-28T04:47:20;5.13;;;4.63;;
4460;SDS011;2243;48.812;9.232;2023-02-28T04:49:51;5.57;;;4.87;;
4460;SDS011;2243;48.812;9.232;2023-02-28T04:52:22;13.43;;;4.60;;
4460;SDS011;2243;48.812;9.232;2023-02-28T04:54:53;4.90;;;4.50;;
4460;SDS011;2243;48.812;9.232;2023-02-28T04:57:24;4.60;;;4.20;;
4460;SDS011;2243;48.812;9.232;2023-02-28T04:59:54;5.43;;;4.60;;
4460;SDS011;2243;48.812;9.232;2023-02-28T05:02:25;4.90;;;4.40;;
4460;SDS011;2243;48.812;9.232;2023-02-28T05:04:56;6.10;;;5.50;;
4460;SDS011;2243;48.812;9.232;2023-02-28T05:07:27;5.70;;;5.20;;
4460;SDS011;2243;48.812;9.232;2023-02-28T05:09:58;5.53;;;5.13;;
4460;SDS011;2243;48.812;9.232;2023-02-28T05:12:29;5.03;;;4.50;;
4460;SDS011;2243;48.812;9.232;2023-02-28T05:15:00;5.40;;;3.93;;
4460;SDS011;2243;48.812;9.232;2023-02-28T05:17:32;4.70;;;4.30;;
4460;SDS011;2243;48.812;9.232;2023-02-28T05:20:03;5.63;;;4.90;;
4460;SDS011;2243;48.812;9.232;2023-02-28T05:22:44;5.67;;;5.17;;
4460;SDS011;2243;48.812;9.232;2023-02-28T05:25:18;9.13;;;5.30;;
4460;SDS011;2243;48.812;9.232;2023-02-28T05:27:53;5.23;;;4.73;;
4460;SDS011;2243;48.812;9.232;2023-02-28T05:30:24;4.77;;;4.33;;
4460;SDS011;2243;48.812;9.232;2023-02-28T05:32:55;4.87;;;4.47;;
4460;SDS011;2243;48.812;9.232;2023-02-28T05:35:26;5.10;;;4.37;;
4460;SDS011;2243;48.812;9.232;2023-02-28T05:37:57;5.23;;;4.83;;
4460;SDS011;2243;48.812;9.232;2023-02-28T05:40:28;6.07;;;5.33;;
4460;SDS011;2243;48.812;9.232;2023-02-28T05:42:59;10.30;;;5.27;;
4460;SDS011;2243;48.812;9.232;2023-02-28T05:45:30;6.47;;;5.83;;
4460;SDS011;2243;48.812;9.232;2023-02-28T05:48:01;8.53;;;5.80;;
4460;SDS011;2243;48.812;9.232;2023-02-28T05:50:32;5.87;;;4.47;;
4460;SDS011;2243;48.812;9.232;2023-02-28T05:53:03;6.80;;;6.00;;
4460;SDS011;2243;48.812;9.232;2023-02-28T05:55:34;5.77;;;5.10;;
4460;SDS011;2243;48.812;9.232;2023-02-28T05:58:06;7.30;;;5.43;;
4460;SDS011;2243;48.812;9.232;2023-02-28T06:00:37;6.13;;;4.57;;
4460;SDS011;2243;48.812;9.232;2023-02-28T06:03:11;5.23;;;4.70;;
4460;SDS011;2243;48.812;9.232;2023-02-28T06:05:42;7.67;;;5.07;;
4460;SDS011;2243;48.812;9.232;2023-02-28T06:08:13;5.60;;;4.63;;
4460;SDS011;2243;48.812;9.232;2023-02-28T06:10:44;5.63;;;5.13;;
4460;SDS011;2243;48.812;9.232;2023-02-28T06:13:15;5.87;;;5.30;;
4460;SDS011;2243;48.812;9.232;2023-02-28T06:15:46;5.63;;;5.13;;
4460;SDS011;2243;48.812;9.232;2023-02-28T06:18:17;5.70;;;5.17;;
4460;SDS011;2243;48.812;9.232;2023-02-28T06:20:54;5.10;;;4.70;;
4460;SDS011;2243;48.812;9.232;2023-02-28T06:23:25;5.57;;;5.07;;
4460;SDS011;2243;48.812;9.232;2023-02-28T06:25:56;5.87;;;5.30;;
4460;SDS011;2243;48.812;9.232;2023-02-28T06:28:28;6.90;;;6.07;;
4460;SDS011;2243;48.812;9.232;2023-02-28T06:31:05;6.70;;;5.50;;
4460;SDS011;2243;48.812;9.232;2023-02-28T06:33:38;5.10;;;4.70;;
4460;SDS011;2243;48.812;9.232;2023-02-28T06:36:11;6.37;;;4.80;;
4460;SDS011;2243;48.812;9.232;2023-02-28T06:38:43;7.20;;;5.30;;
4460;SDS011;2243;48.812;9.232;2023-02-28T06:41:15;5.83;;;5.17;;
4460;SDS011;2243;48.812;9.232;2023-02-28T06:43:46;7.53;;;5.00;;
4460;SDS011;2243;48.812;9.232;2023-02-28T06:46:17;5.50;;;5.03;;
4460;SDS011;2243;48.812;9.232;2023-02-28T06:48:49;6.23;;;5.63;;
4460;SDS011;2243;48.812;9.232;2023-02-28T06:51:20;5.57;;;5.10;;
4460;SDS011;2243;48.812;9.232;2023-02-28T06:53:52;6.00;;;5.40;;
4460;SDS011;2243;48.812;9.232;2023-02-28T06:56:23;7.67;;;6.30;;
4460;SDS011;2243;48.812;9.232;2023-02-28T06:58:54;6.63;;;5.70;;
4460;SDS011;2243;48.812;9.232;2023-02-28T07:01:26;11.27;;;5.37;;
4460;SDS011;2243;48.812;9.232;2023-02-28T07:03:59;6.33;;;5.83;;
4460;SDS011;2243;48.812;9.232;2023-02-28T07:06:30;7.13;;;6.30;;
4460;SDS011;2243;48.812;9.232;2023-02-28T07:09:02;6.33;;;5.37;;
4460;SDS011;2243;48.812;9.232;2023-02-28T07:11:34;8.73;;;6.37;;
4460;SDS011;2243;48.812;9.232;2023-02-28T07:14:05;7.57;;;5.30;;
4460;SDS011;2243;48.812;9.232;2023-02-28T07:16:37;9.10;;;5.97;;
4460;SDS011;2243;48.812;9.232;2023-02-28T07:19:07;6.63;;;6.00;;
4460;SDS011;2243;48.812;9.232;2023-02-28T07:21:38;8.73;;;6.20;;
4460;SDS011;2243;48.812;9.232;2023-02-28T07:24:09;8.53;;;6.23;;
4460;SDS011;2243;48.812;9.232;2023-02-28T07:26:40;8.63;;;4.87;;
4460;SDS011;2243;48.812;9.232;2023-02-28T07:29:14;7.07;;;5.70;;
4460;SDS011;2243;48.812;9.232;2023-02-28T07:31:46;7.73;;;5.37;;
4460;SDS011;2243;48.812;9.232;2023-02-28T07:34:17;7.03;;;6.33;;
4460;SDS011;2243;48.812;9.232;2023-02-28T07:36:54;6.80;;;6.10;;
4460;SDS011;2243;48.812;9.232;2023-02-28T07:39:25;6.23;;;5.60;;
4460;SDS011;2243;48.812;9.232;2023-02-28T07:41:56;6.40;;;5.80;;
4460;SDS011;2243;48.812;9.232;2023-02-28T07:44:27;11.60;;;5.97;;
4460;SDS011;2243;48.812;9.232;2023-02-28T07:46:58;7.83;;;5.57;;
4460;SDS011;2243;48.812;9.232;2023-02-28T07:49:29;7.90;;;5.50;;
4460;SDS011;2243;48.812;9.232;2023-02-28T07:52:00;6.53;;;5.93;;
4460;SDS011;2243;48.812;9.232;2023-02-28T07:54:31;7.20;;;6.23;;
4460;SDS011;2243;48.812;9.232;2023-02-28T07:57:03;6.40;;;5.53;;
4460;SDS011;2243;48.812;9.232;2023-02-28T07:59:34;7.47;;;6.77;;
4460;SDS011;2243;48.812;9.232;2023-02-28T08:02:05;5.93;;;5.40;;
4460;SDS011;2243;48.812;9.232;2023-02-28T08:04:36;7.93;;;6.03;;
4460;SDS011;2243;48.812;9.232;2023-02-28T08:07:07;7.30;;;6.30;;
4460;SDS011;2243;48.812;9.232;2023-02-28T08:09:38;7.50;;;5.87;;
4460;SDS011;2243;48.812;9.232;2023-02-28T08:12:10;9.43;;;6.10;;
4460;SDS011;2243;48.812;9.232;2023-02-28T08:14:42;7.23;;;6.53;;
4460;SDS011;2243;48.812;9.232;2023-02-28T08:17:13;8.90;;;7.03;;
4460;SDS011;2243;48.812;9.232;2023-02-28T08:19:47;6.20;;;5.60;;
4460;SDS011;2243;48.812;9.232;2023-02-28T08:22:18;8.53;;;6.23;;
4460;SDS011;2243;48.812;9.232;2023-02-28T08:24:48;13.30;;;6.60;;
4460;SDS011;2243;48.812;9.232;2023-02-28T08:27:19;9.77;;;6.50;;
4460;SDS011;2243;48.812;9.232;2023-02-28T08:29:50;6.70;;;6.17;;
4460;SDS011;2243;48.812;9.232;2023-02-28T08:32:21;13.93;;;7.50;;
4460;SDS011;2243;48.812;9.232;2023-02-28T08:34:59;7.07;;;6.37;;
4460;SDS011;2243;48.812;9.232;2023-02-28T08:37:30;7.43;;;6.10;;
4460;SDS011;2243;48.812;9.232;2023-02-28T08:40:01;9.57;;;7.07;;
4460;SDS011;2243;48.812;9.232;2023-02-28T08:42:34;7.93;;;7.10;;
4460;SDS011;2243;48.812;9.232;2023-02-28T08:45:05;9.50;;;7.37;;
4460;SDS011;2243;48.812;9.232;2023-02-28T08:47:37;7.40;;;6.60;;
4460;SDS011;2243;48.812;9.232;2023-02-28T08:50:08;11.50;;;7.13;;
4460;SDS011;2243;48.812;9.232;2023-02-28T08:52:42;8.20;;;6.43;;
4460;SDS011;2243;48.812;9.232;2023-02-28T08:55:13;9.23;;;7.33;;
4460;SDS011;2243;48.812;9.232;2023-02-28T08:57:44;8.33;;;7.13;;
4460;SDS011;2243;48.812;9.232;2023-02-28T09:00:15;9.57;;;7.03;;
4460;SDS011;2243;48.812;9.232;2023-02-28T09:02:46;7.70;;;6.90;;
4460;SDS011;2243;48.812;9.232;2023-02-28T09:05:18;8.23;;;7.43;;
4460;SDS011;2243;48.812;9.232;2023-02-28T09:07:49;8.77;;;7.37;;
4460;SDS011;2243;48.812;9.232;2023-02-28T09:10:20;8.57;;;7.13;;
4460;SDS011;2243;48.812;9.232;2023-02-28T09:12:51;9.73;;;7.70;;
4460;SDS011;2243;48.812;9.232;2023-02-28T09:15:23;11.33;;;7.50;;
4460;SDS011;2243;48.812;9.232;2023-02-28T09:17:54;10.03;;;6.93;;
4460;SDS011;2243;48.812;9.232;2023-02-28T09:20:24;7.73;;;6.70;;
4460;SDS011;2243;48.812;9.232;2023-02-28T09:22:55;10.27;;;7.63;;
4460;SDS011;2243;48.812;9.232;2023-02-28T09:25:26;7.50;;;6.50;;
4460;SDS011;2243;48.812;9.232;2023-02-28T09:27:57;11.13;;;7.53;;
4460;SDS011;2243;48.812;9.232;2023-02-28T09:30:29;7.80;;;7.03;;
4460;SDS011;2243;48.812;9.232;2023-02-28T09:33:00;11.10;;;7.80;;
4460;SDS011;2243;48.812;9.232;2023-02-28T09:35:31;8.10;;;7.30;;
4460;SDS011;2243;48.812;9.232;2023-02-28T09:38:02;10.33;;;7.60;;
4460;SDS011;2243;48.812;9.232;2023-02-28T09:40:35;8.17;;;6.87;;
4460;SDS011;2243;48.812;9.232;2023-02-28T09:43:12;11.00;;;7.47;;
4460;SDS011;2243;48.812;9.232;2023-02-28T09:45:49;8.10;;;6.67;;
4460;SDS011;2243;48.812;9.232;2023-02-28T09:48:33;8.70;;;7.73;;
4460;SDS011;2243;48.812;9.232;2023-02-28T09:51:27;10.50;;;7.60;;
4460;SDS011;2243;48.812;9.232;2023-02-28T09:54:04;8.80;;;7.07;;
4460;SDS011;2243;48.812;9.232;2023-02-28T09:56:36;8.67;;;7.40;;
4460;SDS011;2243;48.812;9.232;2023-02-28T10:01:50;10.57;;;8.17;;
4460;SDS011;2243;48.812;9.232;2023-02-28T10:07:36;13.93;;;7.87;;
4460;SDS011;2243;48.812;9.232;2023-02-28T10:10:37;8.30;;;7.17;;
4460;SDS011;2243;48.812;9.232;2023-02-28T10:13:33;10.10;;;8.30;;
4460;SDS011;2243;48.812;9.232;2023-02-28T10:16:29;8.83;;;7.33;;
4460;SDS011;2243;48.812;9.232;2023-02-28T10:22:27;9.40;;;7.70;;
4460;SDS011;2243;48.812;9.232;2023-02-28T10:25:20;9.03;;;6.77;;
4460;SDS011;2243;48.812;9.232;2023-02-28T10:28:09;10.10;;;7.90;;
4460;SDS011;2243;48.812;9.232;2023-02-28T10:30:47;9.97;;;8.43;;
4460;SDS011;2243;48.812;9.232;2023-02-28T10:36:01;9.20;;;8.27;;
4460;SDS011;2243;48.812;9.232;2023-02-28T10:38:34;9.03;;;7.53;;
4460;SDS011;2243;48.812;9.232;2023-02-28T10:43:45;10.20;;;7.93;;
4460;SDS011;2243;48.812;9.232;2023-02-28T10:46:16;8.50;;;7.50;;
4460;SDS011;2243;48.812;9.232;2023-02-28T10:49:01;13.40;;;8.17;;
4460;SDS011;2243;48.812;9.232;2023-02-28T10:51:37;10.40;;;7.13;;
4460;SDS011;2243;48.812;9.232;2023-02-28T10:54:14;9.50;;;7.37;;
4460;SDS011;2243;48.812;9.232;2023-02-28T10:57:21;11.93;;;8.00;;
4460;SDS011;2243;48.812;9.232;2023-02-28T11:00:05;9.53;;;8.60;;
4460;SDS011;2243;48.812;9.232;2023-02-28T11:02:44;11.13;;;7.93;;
4460;SDS011;2243;48.812;9.232;2023-02-28T11:08:06;9.23;;;8.30;;
4460;SDS011;2243;48.812;9.232;2023-02-28T11:10:55;10.07;;;8.80;;
4460;SDS011;2243;48.812;9.232;2023-02-28T11:13:33;11.93;;;8.00;;
4460;SDS011;2243;48.812;9.232;2023-02-28T11:16:08;10.47;;;8.90;;
4460;SDS011;2243;48.812;9.232;2023-02-28T11:18:44;11.63;;;8.80;;
4460;SDS011;2243;48.812;9.232;2023-02-28T11:21:22;13.00;;;9.03;;
4460;SDS011;2243;48.812;9.232;2023-02-28T11:24:42;11.57;;;8.27;;
4460;SDS011;2243;48.812;9.232;2023-02-28T11:26:58;11.10;;;9.00;;
4460;SDS011;2243;48.812;9.232;2023-02-28T11:29:30;11.10;;;8.87;;
4460;SDS011;2243;48.812;9.232;2023-02-28T11:32:18;10.00;;;9.00;;
4460;SDS011;2243;48.812;9.232;2023-02-28T11:35:02;11.90;;;9.40;;
4460;SDS011;2243;48.812;9.232;2023-02-28T11:37:39;11.37;;;8.17;;
4460;SDS011;2243;48.812;9.232;2023-02-28T11:40:15;10.80;;;9.23;;
4460;SDS011;2243;48.812;9.232;2023-02-28T11:43:13;10.90;;;8.57;;
4460;SDS011;2243;48.812;9.232;2023-02-28T11:52:00;12.40;;;9.20;;
4460;SDS011;2243;48.812;9.232;2023-02-28T11:57:42;11.03;;;8.83;;
4460;SDS011;2243;48.812;9.232;2023-02-28T12:06:31;10.27;;;9.07;;
4460;SDS011;2243;48.812;9.232;2023-02-28T12:09:12;12.00;;;8.40;;
4460;SDS011;2243;48.812;9.232;2023-02-28T12:12:18;10.73;;;8.47;;
4460;SDS011;2243;48.812;9.232;2023-02-28T12:18:21;10.47;;;8.63;;
4460;SDS011;2243;48.812;9.232;2023-02-28T12:21:20;9.70;;;8.70;;
4460;SDS011;2243;48.812;9.232;2023-02-28T12:24:23;11.03;;;9.23;;
4460;SDS011;2243;48.812;9.232;2023-02-28T12:27:15;8.93;;;7.90;;
4460;SDS011;2243;48.812;9.232;2023-02-28T12:29:51;10.63;;;8.60;;
4460;SDS011;2243;48.812;9.232;2023-02-28T12:32:32;10.07;;;8.57;;
4460;SDS011;2243;48.812;9.232;2023-02-28T12:40:39;10.47;;;8.20;;
4460;SDS011;2243;48.812;9.232;2023-02-28T12:43:51;12.97;;;8.67;;
4460;SDS011;2243;48.812;9.232;2023-02-28T12:46:41;10.00;;;8.30;;
4460;SDS011;2243;48.812;9.232;2023-02-28T12:52:27;12.33;;;8.93;;
4460;SDS011;2243;48.812;9.232;2023-02-28T13:10:02;11.13;;;8.47;;
4460;SDS011;2243;48.812;9.232;2023-02-28T13:12:37;11.77;;;8.83;;
4460;SDS011;2243;48.812;9.232;2023-02-28T13:15:24;8.67;;;7.50;;
4460;SDS011;2243;48.812;9.232;2023-02-28T13:17:58;9.73;;;8.40;;
4460;SDS011;2243;48.812;9.232;2023-02-28T13:20:33;9.83;;;8.57;;
4460;SDS011;2243;48.812;9.232;2023-02-28T13:23:14;8.03;;;7.23;;
4460;SDS011;2243;48.812;9.232;2023-02-28T13:26:11;13.73;;;9.20;;
4460;SDS011;2243;48.812;9.232;2023-02-28T13:47:33;8.70;;;7.40;;
4460;SDS011;2243;48.812;9.232;2023-02-28T13:50:21;9.37;;;7.63;;
4460;SDS011;2243;48.812;9.232;2023-02-28T14:01:56;11.63;;;8.00;;
4460;SDS011;2243;48.812;9.232;2023-02-28T14:05:10;10.50;;;8.33;;
4460;SDS011;2243;48.812;9.232;2023-02-28T14:07:57;9.77;;;7.30;;
4460;SDS011;2243;48.812;9.232;2023-02-28T14:10:41;10.47;;;7.73;;
4460;SDS011;2243;48.812;9.232;2023-02-28T14:18:34;8.50;;;7.17;;
4460;SDS011;2243;48.812;9.232;2023-02-28T14:21:12;10.37;;;7.60;;
4460;SDS011;2243;48.812;9.232;2023-02-28T14:35:22;11.07;;;8.37;;
4460;SDS011;2243;48.812;9.232;2023-02-28T14:38:25;8.40;;;7.50;;
4460;SDS011;2243;48.812;9.232;2023-02-28T14:41:06;10.83;;;7.70;;
4460;SDS011;2243;48.812;9.232;2023-02-28T14:43:51;9.90;;;8.23;;
4460;SDS011;2243;48.812;9.232;2023-02-28T14:46:38;13.10;;;7.77;;
4460;SDS011;2243;48.812;9.232;2023-02-28T14:49:31;9.73;;;8.33;;
4460;SDS011;2243;48.812;9.232;2023-02-28T14:54:55;8.80;;;7.90;;
4460;SDS011;2243;48.812;9.232;2023-02-28T14:57:32;8.53;;;7.60;;
4460;SDS011;2243;48.812;9.232;2023-02-28T15:00:14;12.17;;;9.90;;
4460;SDS011;2243;48.812;9.232;2023-02-28T15:02:48;11.00;;;7.83;;
4460;SDS011;2243;48.812;9.232;2023-02-28T15:05:27;13.73;;;8.87;;
4460;SDS011;2243;48.812;9.232;2023-02-28T15:08:03;10.90;;;7.70;;
4460;SDS011;2243;48.812;9.232;2023-02-28T15:10:49;9.90;;;7.87;;
4460;SDS011;2243;48.812;9.232;2023-02-28T15:13:36;11.50;;;8.27;;
4460;SDS011;2243;48.812;9.232;2023-02-28T15:16:18;9.33;;;7.50;;
4460;SDS011;2243;48.812;9.232;2023-02-28T15:19:00;10.50;;;8.33;;
4460;SDS011;2243;48.812;9.232;2023-02-28T15:21:35;8.77;;;7.60;;
4460;SDS011;2243;48.812;9.232;2023-02-28T15:26:55;9.67;;;8.30;;
4460;SDS011;2243;48.812;9.232;2023-02-28T15:29:29;8.70;;;7.80;;
4460;SDS011;2243;48.812;9.232;2023-02-28T15:32:07;10.10;;;8.80;;
4460;SDS011;2243;48.812;9.232;2023-02-28T15:34:52;10.63;;;9.43;;
4460;SDS011;2243;48.812;9.232;2023-02-28T15:37:28;12.93;;;8.90;;
4460;SDS011;2243;48.812;9.232;2023-02-28T15:40:10;11.40;;;8.83;;
4460;SDS011;2243;48.812;9.232;2023-02-28T15:43:03;11.03;;;8.20;;
4460;SDS011;2243;48.812;9.232;2023-02-28T15:46:15;11.67;;;8.13;;
4460;SDS011;2243;48.812;9.232;2023-02-28T15:48:43;11.63;;;8.67;;
4460;SDS011;2243;48.812;9.232;2023-02-28T15:51:28;11.47;;;9.17;;
4460;SDS011;2243;48.812;9.232;2023-02-28T15:54:08;11.03;;;8.30;;
4460;SDS011;2243;48.812;9.232;2023-02-28T15:56:49;11.70;;;8.20;;
4460;SDS011;2243;48.812;9.232;2023-02-28T15:59:26;10.37;;;8.10;;
4460;SDS011;2243;48.812;9.232;2023-02-28T16:08:11;13.90;;;8.37;;
4460;SDS011;2243;48.812;9.232;2023-02-28T16:10:45;10.23;;;9.13;;
4460;SDS011;2243;48.812;9.232;2023-02-28T16:13:16;10.77;;;9.53;;
4460;SDS011;2243;48.812;9.232;2023-02-28T16:15:47;10.40;;;7.87;;
4460;SDS011;2243;48.812;9.232;2023-02-28T16:18:20;9.37;;;8.23;;
4460;SDS011;2243;48.812;9.232;2023-02-28T16:20:51;9.53;;;8.40;;
4460;SDS011;2243;48.812;9.232;2023-02-28T16:23:22;11.10;;;8.67;;
4460;SDS011;2243;48.812;9.232;2023-02-28T16:25:53;8.60;;;7.80;;
4460;SDS011;2243;48.812;9.232;2023-02-28T16:28:24;10.57;;;8.60;;
4460;SDS011;2243;48.812;9.232;2023-02-28T16:31:03;9.27;;;7.90;;
4460;SDS011;2243;48.812;9.232;2023-02-28T16:33:36;10.63;;;8.57;;
4460;SDS011;2243;48.812;9.232;2023-02-28T16:36:10;16.53;;;8.67;;
4460;SDS011;2243;48.812;9.232;2023-02-28T16:38:49;10.70;;;7.93;;
4460;SDS011;2243;48.812;9.232;2023-02-28T16:41:22;13.90;;;7.87;;
4460;SDS011;2243;48.812;9.232;2023-02-28T16:43:58;10.97;;;8.57;;
4460;SDS011;2243;48.812;9.232;2023-02-28T16:46:30;10.70;;;8.87;;
4460;SDS011;2243;48.812;9.232;2023-02-28T16:49:05;8.50;;;7.60;;
4460;SDS011;2243;48.812;9.232;2023-02-28T16:51:43;10.90;;;8.20;;
4460;SDS011;2243;48.812;9.232;2023-02-28T16:54:14;10.20;;;8.00;;
4460;SDS011;2243;48.812;9.232;2023-02-28T16:56:45;11.90;;;8.30;;
4460;SDS011;2243;48.812;9.232;2023-02-28T16:59:19;13.57;;;8.67;;
4460;SDS011;2243;48.812;9.232;2023-02-28T17:01:54;12.67;;;8.80;;
4460;SDS011;2243;48.812;9.232;2023-02-28T17:04:28;10.40;;;9.30;;
4460;SDS011;2243;48.812;9.232;2023-02-28T17:06:58;16.63;;;8.70;;
4460;SDS011;2243;48.812;9.232;2023-02-28T17:09:30;14.67;;;8.60;;
4460;SDS011;2243;48.812;9.232;2023-02-28T17:12:12;10.20;;;8.40;;
4460;SDS011;2243;48.812;9.232;2023-02-28T17:14:44;11.80;;;8.70;;
4460;SDS011;2243;48.812;9.232;2023-02-28T17:17:20;11.97;;;9.70;;
4460;SDS011;2243;48.812;9.232;2023-02-28T17:19:51;11.80;;;9.33;;
4460;SDS011;2243;48.812;9.232;2023-02-28T17:22:23;15.90;;;9.47;;
4460;SDS011;2243;48.812;9.232;2023-02-28T17:24:55;12.30;;;9.17;;
4460;SDS011;2243;48.812;9.232;2023-02-28T17:27:27;12.47;;;10.13;;
4460;SDS011;2243;48.812;9.232;2023-02-28T17:29:58;14.37;;;9.00;;
4460;SDS011;2243;48.812;9.232;2023-02-28T17:32:31;12.57;;;10.03;;
4460;SDS011;2243;48.812;9.232;2023-02-28T17:35:02;11.50;;;8.90;;
4460;SDS011;2243;48.812;9.232;2023-02-28T17:37:33;16.23;;;9.40;;
4460;SDS011;2243;48.812;9.232;2023-02-28T17:40:04;12.20;;;9.33;;
4460;SDS011;2243;48.812;9.232;2023-02-28T17:42:44;13.20;;;9.47;;
4460;SDS011;2243;48.812;9.232;2023-02-28T17:45:16;17.50;;;10.50;;
4460;SDS011;2243;48.812;9.232;2023-02-28T17:47:47;16.47;;;9.87;;
4460;SDS011;2243;48.812;9.232;2023-02-28T17:50:21;15.67;;;11.13;;
4460;SDS011;2243;48.812;9.232;2023-02-28T17:52:52;15.67;;;9.63;;
4460;SDS011;2243;48.812;9.232;2023-02-28T17:55:23;12.63;;;9.10;;
4460;SDS011;2243;48.812;9.232;2023-02-28T17:57:54;16.93;;;10.77;;
4460;SDS011;2243;48.812;9.232;2023-02-28T18:00:25;15.90;;;12.07;;
4460;SDS011;2243;48.812;9.232;2023-02-28T18:02:56;15.97;;;11.23;;
4460;SDS011;2243;48.812;9.232;2023-02-28T18:05:27;13.93;;;9.73;;
4460;SDS011;2243;48.812;9.232;2023-02-28T18:07:58;14.20;;;9.70;;
4460;SDS011;2243;48.812;9.232;2023-02-28T18:10:29;14.60;;;10.57;;
4460;SDS011;2243;48.812;9.232;2023-02-28T18:13:03;17.37;;;9.67;;
4460;SDS011;2243;48.812;9.232;2023-02-28T18:15:34;14.57;;;10.20;;
4460;SDS011;2243;48.812;9.232;2023-02-28T18:18:05;14.90;;;10.40;;
4460;SDS011;2243;48.812;9.232;2023-02-28T18:20:36;18.77;;;11.60;;
4460;SDS011;2243;48.812;9.232;2023-02-28T18:23:07;14.53;;;10.60;;
4460;SDS011;2243;48.812;9.232;2023-02-28T18:25:39;15.03;;;11.37;;
4460;SDS011;2243;48.812;9.232;2023-02-28T18:28:10;18.67;;;11.50;;
4460;SDS011;2243;48.812;9.232;2023-02-28T18:30:41;16.73;;;12.10;;
4460;SDS011;2243;48.812;9.232;2023-02-28T18:33:12;18.60;;;11.27;;